Dace Reinauer — WCW8843 — position and weather

sailwx.info

Track history (hours):
 
Tides and Currents Weather Stations Pressure Air Temp Water Temp Dewpoint Dewpoint Depression Visibility Wind Speed Wind Dir Waves Ship Positions

Dace Reinauer

Owner: REINAUER TRANSPORTATION CO.LLC., STATEN ISLAND, NY. More information available from US FCC via Universal Licensing System and Coast Guard Vessel Documentation Center.

Last reported at 2018-Jul-22 12:31 UTC. Time now 2018-Jul-23 07:26 UTC.
Position N 42°56' W 070°17'.

Length 117 m; draft 6 m.

Type: . MMSI: 366238710.

Date/timePositionNaut miles runAvg speedWind from/ knotsBaromVisibWave heightAir tempDewpointWater temp
2018-Jul-22 12:31N 42°56' W 070°17'0 9.0
2018-Jul-22 12:28N 42°56' W 070°17'4 9.0
2018-Jul-22 12:00N 42°52' W 070°18'4 9.0
2018-Jul-22 11:30N 42°47' W 070°19'5 9.1
2018-Jul-22 11:00N 42°43' W 070°20'5 9.1
2018-Jul-22 10:30N 42°38' W 070°21'4 9.0
2018-Jul-22 10:00N 42°34' W 070°22'5 8.9
2018-Jul-22 09:29N 42°29' W 070°22'4 8.8
2018-Jul-22 09:00N 42°25' W 070°23'4 8.8
2018-Jul-22 08:30N 42°20' W 070°24'4 8.8
2018-Jul-22 08:00N 42°16' W 070°24'4 8.8
2018-Jul-22 07:30N 42°12' W 070°25'5 9.1
2018-Jul-22 07:00N 42°07' W 070°26'5 9.2
2018-Jul-22 06:30N 42°03' W 070°27'4 8.8
2018-Jul-22 06:00N 41°58' W 070°27'5 9.2
2018-Jul-22 05:30N 41°54' W 070°27'5 9.2
2018-Jul-22 05:00N 41°49' W 070°27'4 7.8
2018-Jul-22 04:30N 41°46' W 070°31'4 8.0
2018-Jul-22 03:59N 41°45' W 070°36'3 5.5
2018-Jul-22 03:30N 41°43' W 070°39'3 6.1
2018-Jul-22 03:00N 41°40' W 070°41'4 8.4
2018-Jul-22 02:30N 41°36' W 070°42'4 8.1
2018-Jul-22 02:00N 41°33' W 070°46'4 8.3
2018-Jul-22 01:30N 41°30' W 070°50'4 8.3
2018-Jul-22 01:00N 41°29' W 070°55'4 7.9
2018-Jul-22 00:30N 41°27' W 070°60'5 8.3
2018-Jul-21 23:55N 41°23' W 071°04'4 8.6
2018-Jul-21 23:30N 41°21' W 071°07'4 8.6
2018-Jul-21 23:00N 41°17' W 071°11'4 8.8
2018-Jul-21 22:30N 41°14' W 071°14'4 8.7
2018-Jul-21 22:00N 41°10' W 071°18'135 7.9
2018-Jul-21 04:57N 40°30' W 074°08'6 0.4
2018-Jul-20 12:50N 40°32' W 074°15'0 0.0
2018-Jul-20 12:20N 40°32' W 074°15'0 0.0
2018-Jul-20 11:53N 40°32' W 074°15'0 0.0
2018-Jul-20 06:47N 40°32' W 074°15'0 0.0
2018-Jul-20 04:31N 40°32' W 074°15'0 1.0
2018-Jul-20 04:30N 40°32' W 074°15'0 0.0
2018-Jul-20 04:00N 40°32' W 074°15'2 4.9
2018-Jul-20 03:30N 40°34' W 074°13'4 8.5
2018-Jul-20 03:00N 40°38' W 074°12'5 9.4
2018-Jul-20 02:30N 40°39' W 074°06'4 8.0
2018-Jul-20 02:00N 40°40' W 074°01'0 0.0
2018-Jul-20 01:30N 40°40' W 074°01'0 0.0
2018-Jul-20 00:59N 40°40' W 074°01'0 0.0
2018-Jul-20 00:29N 40°40' W 074°01'0 0.0
2018-Jul-19 23:59N 40°40' W 074°01'0 0.0
2018-Jul-19 23:29N 40°40' W 074°01'0 0.0
2018-Jul-19 22:59N 40°40' W 074°01'0 0.0
2018-Jul-19 22:29N 40°40' W 074°01'0 0.0
2018-Jul-19 21:59N 40°40' W 074°01'0 0.0
2018-Jul-19 21:29N 40°40' W 074°01'0 0.0
2018-Jul-19 20:59N 40°40' W 074°01'0 0.0
2018-Jul-19 20:29N 40°40' W 074°01'0 0.0
2018-Jul-19 19:59N 40°40' W 074°01'0 0.0
2018-Jul-19 19:29N 40°40' W 074°01'0 0.0
2018-Jul-19 18:59N 40°40' W 074°01'0 0.0
2018-Jul-19 18:29N 40°40' W 074°01'0 0.0
2018-Jul-19 17:59N 40°40' W 074°01'0 0.0
2018-Jul-19 17:29N 40°40' W 074°01'0 0.0
2018-Jul-19 16:59N 40°40' W 074°01'0 0.0
2018-Jul-19 16:31N 40°40' W 074°01'0 0.1
2018-Jul-19 16:01N 40°40' W 074°01'3 5.4
2018-Jul-19 15:30N 40°39' W 074°04'3 5.4
2018-Jul-19 15:00N 40°38' W 074°08'0 0.0
2018-Jul-19 14:01N 40°38' W 074°08'510.0
2018-Jul-19 13:30N 40°40' W 074°02'1 1.4
2018-Jul-19 12:59N 40°40' W 074°01'0 0.0
2018-Jul-19 12:29N 40°40' W 074°01'0 0.0
2018-Jul-19 11:59N 40°40' W 074°01'0 0.0
2018-Jul-19 11:29N 40°40' W 074°01'0 0.0
2018-Jul-19 10:59N 40°40' W 074°01'0 0.0
2018-Jul-19 10:29N 40°40' W 074°01'0 0.0
2018-Jul-19 09:59N 40°40' W 074°01'0 0.0
2018-Jul-19 09:29N 40°40' W 074°01'0 0.0
2018-Jul-19 08:59N 40°40' W 074°01'0 0.3
2018-Jul-19 08:29N 40°40' W 074°01'0 0.0
2018-Jul-19 07:59N 40°40' W 074°01'0 0.0
2018-Jul-19 07:29N 40°40' W 074°01'0 0.0
2018-Jul-19 07:01N 40°40' W 074°01'0 0.1
2018-Jul-19 06:31N 40°40' W 074°01'0 0.0
2018-Jul-19 06:01N 40°40' W 074°01'0 0.1
2018-Jul-19 05:30N 40°40' W 074°01'0 0.0
2018-Jul-19 05:00N 40°40' W 074°01'0 0.0
2018-Jul-19 04:30N 40°40' W 074°01'0 0.0
2018-Jul-19 04:00N 40°40' W 074°01'0 0.0
2018-Jul-19 03:30N 40°40' W 074°01'0 0.0
2018-Jul-19 03:00N 40°40' W 074°01'0 0.0
2018-Jul-19 02:30N 40°40' W 074°01'0 0.0
2018-Jul-19 02:00N 40°40' W 074°01'0 0.0
2018-Jul-19 01:30N 40°40' W 074°01'0 0.0
2018-Jul-19 01:00N 40°40' W 074°01'0 0.0
2018-Jul-19 00:30N 40°40' W 074°01'0 0.0
2018-Jul-19 00:00N 40°40' W 074°01'0 0.0
2018-Jul-18 23:30N 40°40' W 074°01'0 0.0
2018-Jul-18 23:00N 40°40' W 074°01'0 0.0
2018-Jul-18 22:30N 40°40' W 074°01'0 0.0
2018-Jul-18 22:00N 40°40' W 074°01'0 0.0
2018-Jul-18 21:30N 40°40' W 074°01'0 0.0
2018-Jul-18 21:00N 40°40' W 074°01'0 0.0
2018-Jul-18 20:30N 40°40' W 074°01'0 0.0
2018-Jul-18 20:00N 40°40' W 074°01'0 0.0
2018-Jul-18 19:30N 40°40' W 074°01'0 0.0
2018-Jul-18 19:00N 40°40' W 074°01'0 0.0
2018-Jul-18 18:30N 40°40' W 074°01'0 0.0
2018-Jul-18 18:00N 40°40' W 074°01'0 0.0
2018-Jul-18 17:30N 40°40' W 074°01'0 0.2
2018-Jul-18 17:00N 40°40' W 074°01'0 0.0
2018-Jul-18 16:30N 40°40' W 074°01'0 0.0
2018-Jul-18 16:00N 40°40' W 074°01'0 0.0
2018-Jul-18 15:30N 40°40' W 074°01'0 0.0
2018-Jul-18 15:00N 40°40' W 074°01'0 0.0
2018-Jul-18 14:30N 40°40' W 074°01'0 0.0
2018-Jul-18 13:30N 40°40' W 074°01'0 0.0
2018-Jul-18 13:00N 40°40' W 074°01'0 0.0
2018-Jul-18 12:30N 40°40' W 074°01'0 0.0
2018-Jul-18 12:00N 40°40' W 074°01'0 0.0
2018-Jul-18 11:30N 40°40' W 074°01'0 0.0
2018-Jul-18 10:30N 40°40' W 074°01'0 0.0
2018-Jul-18 10:00N 40°40' W 074°01'0 0.0
2018-Jul-18 09:30N 40°40' W 074°01'0 0.0
2018-Jul-18 09:00N 40°40' W 074°01'0 0.0
2018-Jul-18 08:30N 40°40' W 074°01'0 0.0
2018-Jul-18 08:00N 40°40' W 074°01'0 0.0
2018-Jul-18 07:30N 40°40' W 074°01'0 0.0
2018-Jul-18 07:00N 40°40' W 074°01'0 0.0
2018-Jul-18 06:30N 40°40' W 074°01'0 0.0
2018-Jul-18 06:00N 40°40' W 074°01'0 0.0
2018-Jul-18 05:30N 40°40' W 074°01'0 0.0
2018-Jul-18 05:00N 40°40' W 074°01'0 0.0
2018-Jul-18 04:30N 40°40' W 074°01'0 0.0
2018-Jul-18 04:00N 40°40' W 074°01'0 0.0
2018-Jul-18 03:30N 40°40' W 074°01'0 0.0
2018-Jul-18 03:00N 40°40' W 074°01'0 0.0
2018-Jul-18 02:30N 40°40' W 074°01'0 0.0
2018-Jul-18 02:00N 40°40' W 074°01'0 0.0
2018-Jul-18 01:30N 40°40' W 074°01'0 0.0
2018-Jul-18 01:00N 40°40' W 074°01'0 0.0
2018-Jul-18 00:30N 40°40' W 074°01'0 0.2
2018-Jul-18 00:00N 40°40' W 074°01'1 2.1
2018-Jul-17 23:30N 40°40' W 074°02'1 1.3
2018-Jul-17 23:00N 40°40' W 074°03'4 8.1
2018-Jul-17 22:30N 40°39' W 074°08'0 0.2
2018-Jul-17 22:00N 40°38' W 074°08'0 0.0
2018-Jul-17 21:30N 40°38' W 074°08'0 0.0
2018-Jul-17 21:00N 40°38' W 074°08'0 0.0
2018-Jul-17 20:30N 40°38' W 074°08'0 0.0
2018-Jul-17 20:00N 40°38' W 074°08'0 0.0
2018-Jul-17 19:30N 40°38' W 074°08'0 0.0
2018-Jul-17 18:59N 40°38' W 074°08'0 0.0
2018-Jul-17 18:30N 40°38' W 074°08'0 0.0
2018-Jul-17 18:00N 40°38' W 074°08'0 0.0
2018-Jul-17 17:30N 40°38' W 074°08'0 0.0
2018-Jul-17 17:00N 40°38' W 074°08'0 0.0
2018-Jul-17 16:30N 40°38' W 074°08'0 0.0
2018-Jul-17 16:00N 40°38' W 074°08'0 0.0
2018-Jul-17 15:30N 40°38' W 074°08'0 0.0
2018-Jul-17 14:57N 40°38' W 074°08'0 0.0
2018-Jul-17 14:30N 40°38' W 074°08'0 0.0
2018-Jul-17 14:00N 40°38' W 074°08'0 0.0
2018-Jul-17 13:30N 40°38' W 074°08'0 0.0
2018-Jul-17 13:00N 40°38' W 074°08'0 0.0
2018-Jul-17 12:30N 40°38' W 074°08'0 0.0
2018-Jul-17 12:00N 40°38' W 074°08'0 0.0
2018-Jul-17 11:30N 40°38' W 074°08'0 0.0
2018-Jul-17 11:00N 40°38' W 074°08'1 2.6
2018-Jul-17 10:29N 40°39' W 074°06'2 4.9
2018-Jul-17 10:00N 40°40' W 074°03'2 3.4
2018-Jul-17 09:30N 40°40' W 074°01'0 0.2
2018-Jul-17 09:00N 40°40' W 074°01'0 0.0
2018-Jul-17 08:30N 40°40' W 074°01'0 0.0
2018-Jul-17 08:00N 40°40' W 074°01'0 0.0
2018-Jul-17 07:30N 40°40' W 074°01'0 0.0
2018-Jul-17 07:00N 40°40' W 074°01'0 0.0
2018-Jul-17 06:30N 40°40' W 074°01'0 0.0
2018-Jul-17 06:00N 40°40' W 074°01'0 0.0
2018-Jul-17 05:30N 40°40' W 074°01'0 0.0
2018-Jul-17 05:00N 40°40' W 074°01'0 0.0
2018-Jul-17 04:30N 40°40' W 074°01'0 0.0
2018-Jul-17 04:00N 40°40' W 074°01'0 0.0
2018-Jul-17 03:30N 40°40' W 074°01'0 0.0
2018-Jul-17 03:00N 40°40' W 074°01'0 0.0
2018-Jul-17 02:30N 40°40' W 074°01'0 0.0
2018-Jul-17 02:00N 40°40' W 074°01'0 0.0
2018-Jul-17 01:30N 40°40' W 074°01'0 0.0
2018-Jul-17 01:00N 40°40' W 074°01'0 0.0
2018-Jul-17 00:30N 40°40' W 074°01'0 0.0
2018-Jul-16 23:30N 40°40' W 074°01'0 0.1
2018-Jul-16 23:00N 40°40' W 074°01'0 0.0
2018-Jul-16 22:30N 40°40' W 074°01'0 0.1
2018-Jul-16 22:00N 40°40' W 074°01'0 0.0
2018-Jul-16 21:30N 40°40' W 074°01'0 0.0
2018-Jul-16 21:00N 40°40' W 074°01'0 0.0
2018-Jul-16 20:30N 40°40' W 074°01'0 0.0
2018-Jul-16 20:00N 40°40' W 074°01'0 0.0
2018-Jul-16 19:30N 40°40' W 074°01'0 0.0
2018-Jul-16 19:00N 40°40' W 074°01'0 0.0
2018-Jul-16 18:30N 40°40' W 074°01'0 0.0
2018-Jul-16 18:00N 40°40' W 074°01'0 0.0
2018-Jul-16 17:30N 40°40' W 074°01'0 0.0
2018-Jul-16 17:00N 40°40' W 074°01'0 0.0
2018-Jul-16 16:30N 40°40' W 074°01'0 0.0
2018-Jul-16 16:00N 40°40' W 074°01'0 0.0
2018-Jul-16 15:30N 40°40' W 074°01'0 0.0
2018-Jul-16 15:00N 40°40' W 074°01'0 0.0
2018-Jul-16 14:30N 40°40' W 074°01'0 0.1
2018-Jul-16 14:00N 40°40' W 074°01'0 0.0
2018-Jul-16 13:30N 40°40' W 074°01'0 0.0
2018-Jul-16 13:00N 40°40' W 074°01'0 0.0
2018-Jul-16 12:30N 40°40' W 074°01'0 0.0
2018-Jul-16 12:00N 40°40' W 074°01'0 0.0
2018-Jul-16 11:30N 40°40' W 074°01'0 0.1
2018-Jul-16 11:00N 40°40' W 074°01'1 2.5
2018-Jul-16 10:31N 40°40' W 074°03'4 8.4
2018-Jul-16 10:00N 40°39' W 074°08'3 5.2
2018-Jul-16 09:30N 40°39' W 074°11'2 4.3
2018-Jul-16 08:57N 40°36' W 074°12'0 0.0
2018-Jul-16 08:29N 40°36' W 074°12'0 0.0
2018-Jul-16 02:26N 40°36' W 074°12'1 0.1
2018-Jul-15 10:28N 40°37' W 074°12'4 8.2
2018-Jul-15 10:00N 40°39' W 074°07'4 7.6
2018-Jul-15 09:30N 40°40' W 074°03'0 0.1
2018-Jul-15 09:00N 40°40' W 074°03'0 0.1
2018-Jul-15 08:30N 40°40' W 074°03'0 0.1
2018-Jul-15 08:00N 40°40' W 074°03'0 0.0
2018-Jul-15 07:30N 40°40' W 074°03'0 0.0
2018-Jul-15 07:00N 40°40' W 074°03'0 0.0
2018-Jul-15 06:30N 40°40' W 074°03'0 0.0
2018-Jul-15 06:00N 40°40' W 074°03'0 0.0
2018-Jul-15 05:30N 40°40' W 074°03'0 0.1
2018-Jul-15 05:00N 40°40' W 074°03'0 0.1
2018-Jul-15 04:30N 40°40' W 074°03'0 0.2
2018-Jul-15 04:00N 40°40' W 074°02'0 0.1
2018-Jul-15 03:30N 40°40' W 074°02'0 0.6
2018-Jul-15 03:00N 40°40' W 074°02'3 6.9
2018-Jul-15 02:30N 40°42' W 073°59'4 7.2
2018-Jul-15 02:00N 40°46' W 073°57'66 8.6
2018-Jul-14 18:20N 41°07' W 072°34'4 9.8
2018-Jul-14 17:58N 41°08' W 072°30'5 9.9
2018-Jul-14 17:30N 41°10' W 072°24'5 9.9
2018-Jul-14 17:00N 41°11' W 072°17'610.4
2018-Jul-14 16:23N 41°13' W 072°09'40 9.8
2018-Jul-14 12:16N 41°30' W 071°21'3 8.9
2018-Jul-14 11:59N 41°32' W 071°20'8 9.3
2018-Jul-14 11:10N 41°40' W 071°19'1 9.6
2018-Jul-14 11:00N 41°41' W 071°19'5 9.0
2018-Jul-14 10:30N 41°45' W 071°22'2 3.7
2018-Jul-14 10:00N 41°47' W 071°22'0 0.0
2018-Jul-14 09:30N 41°47' W 071°22'0 0.0
2018-Jul-14 09:00N 41°47' W 071°22'0 0.0
2018-Jul-14 08:30N 41°47' W 071°22'0 0.0
2018-Jul-14 08:00N 41°47' W 071°22'0 0.0
2018-Jul-14 07:30N 41°47' W 071°22'0 0.0
2018-Jul-14 07:00N 41°47' W 071°22'0 0.0
2018-Jul-14 06:30N 41°47' W 071°22'0 0.0
2018-Jul-14 06:00N 41°47' W 071°22'0 0.0
2018-Jul-14 05:30N 41°47' W 071°22'0 0.0
2018-Jul-14 05:00N 41°47' W 071°22'0 0.0
2018-Jul-14 04:30N 41°47' W 071°22'0 0.0
2018-Jul-14 04:00N 41°47' W 071°22'0 0.0
2018-Jul-14 03:30N 41°47' W 071°22'0 0.0
2018-Jul-14 03:00N 41°47' W 071°22'0 0.0
2018-Jul-14 02:30N 41°47' W 071°22'0 0.0
2018-Jul-14 02:00N 41°47' W 071°22'0 0.0
2018-Jul-14 01:30N 41°47' W 071°22'0 0.0
2018-Jul-14 01:00N 41°47' W 071°22'0 0.0
2018-Jul-14 00:30N 41°47' W 071°22'0 0.0
2018-Jul-14 00:00N 41°47' W 071°22'0 0.0
2018-Jul-13 23:30N 41°47' W 071°22'2 1.6
2018-Jul-13 22:25N 41°48' W 071°24'2 4.2
2018-Jul-13 22:00N 41°47' W 071°22'1 3.0
2018-Jul-13 21:30N 41°45' W 071°23'5 9.4
2018-Jul-13 20:59N 41°41' W 071°19'80 8.2
2018-Jul-13 11:19N 40°45' W 072°34'5 8.3
2018-Jul-13 10:45N 40°44' W 072°40'3 8.3
2018-Jul-13 10:24N 40°43' W 072°44'3 8.5
2018-Jul-13 10:00N 40°41' W 072°48'4 8.6
2018-Jul-13 09:30N 40°40' W 072°53'4 8.7
2018-Jul-13 09:00N 40°38' W 072°59'4 8.7
2018-Jul-13 08:31N 40°37' W 073°04'4 8.9
2018-Jul-13 08:00N 40°35' W 073°09'5 9.0
2018-Jul-13 07:30N 40°33' W 073°15'5 9.2
2018-Jul-13 07:00N 40°32' W 073°20'5 9.3
2018-Jul-13 06:30N 40°31' W 073°26'8 9.6
2018-Jul-13 05:42N 40°29' W 073°36'3 9.5
2018-Jul-13 05:22N 40°28' W 073°40'4 9.6
2018-Jul-13 04:57N 40°28' W 073°45'4 9.8
2018-Jul-13 04:31N 40°28' W 073°51'611.5
2018-Jul-13 04:00N 40°30' W 073°58'510.2
2018-Jul-13 03:30N 40°35' W 074°02'510.0
2018-Jul-13 03:00N 40°39' W 074°05'4 8.0
2018-Jul-13 02:30N 40°39' W 074°10'3 2.6
2018-Jul-13 01:23N 40°36' W 074°12'0 0.1
2018-Jul-13 00:57N 40°36' W 074°12'0 0.0
2018-Jul-13 00:24N 40°36' W 074°12'0 0.0
2018-Jul-12 18:47N 40°36' W 074°12'0 0.0
2018-Jul-12 17:55N 40°36' W 074°12'0 0.2
2018-Jul-12 16:00N 40°37' W 074°12'4 7.9
2018-Jul-12 15:28N 40°39' W 074°07'1 1.4
2018-Jul-12 15:00N 40°39' W 074°07'0 0.0
2018-Jul-12 14:28N 40°39' W 074°07'0 0.0
2018-Jul-12 13:56N 40°39' W 074°07'0 0.0
2018-Jul-12 13:28N 40°39' W 074°07'0 0.0
2018-Jul-12 13:00N 40°39' W 074°07'  
Track history (hours):
 
Tides and Currents Weather Stations Pressure Air Temp Water Temp Dewpoint Dewpoint Depression Visibility Wind Speed Wind Dir Waves Ship Positions

Dace Reinauer

Owner: REINAUER TRANSPORTATION CO.LLC., STATEN ISLAND, NY. More information available from US FCC via Universal Licensing System and Coast Guard Vessel Documentation Center.

Last reported at 2018-Jul-22 12:31 UTC. Time now 2018-Jul-23 07:26 UTC.
Position N 42°56' W 070°17'.

Length 117 m; draft 6 m.

Type: . MMSI: 366238710.

Date/timePositionNaut miles runAvg speedWind from/ knotsBaromVisibWave heightAir tempDewpointWater temp
2018-Jul-22 12:31N 42°56' W 070°17'0 9.0
2018-Jul-22 12:28N 42°56' W 070°17'4 9.0
2018-Jul-22 12:00N 42°52' W 070°18'4 9.0
2018-Jul-22 11:30N 42°47' W 070°19'5 9.1
2018-Jul-22 11:00N 42°43' W 070°20'5 9.1
2018-Jul-22 10:30N 42°38' W 070°21'4 9.0
2018-Jul-22 10:00N 42°34' W 070°22'5 8.9
2018-Jul-22 09:29N 42°29' W 070°22'4 8.8
2018-Jul-22 09:00N 42°25' W 070°23'4 8.8
2018-Jul-22 08:30N 42°20' W 070°24'4 8.8
2018-Jul-22 08:00N 42°16' W 070°24'4 8.8
2018-Jul-22 07:30N 42°12' W 070°25'5 9.1
2018-Jul-22 07:00N 42°07' W 070°26'5 9.2
2018-Jul-22 06:30N 42°03' W 070°27'4 8.8
2018-Jul-22 06:00N 41°58' W 070°27'5 9.2
2018-Jul-22 05:30N 41°54' W 070°27'5 9.2
2018-Jul-22 05:00N 41°49' W 070°27'4 7.8
2018-Jul-22 04:30N 41°46' W 070°31'4 8.0
2018-Jul-22 03:59N 41°45' W 070°36'3 5.5
2018-Jul-22 03:30N 41°43' W 070°39'3 6.1
2018-Jul-22 03:00N 41°40' W 070°41'4 8.4
2018-Jul-22 02:30N 41°36' W 070°42'4 8.1
2018-Jul-22 02:00N 41°33' W 070°46'4 8.3
2018-Jul-22 01:30N 41°30' W 070°50'4 8.3
2018-Jul-22 01:00N 41°29' W 070°55'4 7.9
2018-Jul-22 00:30N 41°27' W 070°60'5 8.3
2018-Jul-21 23:55N 41°23' W 071°04'4 8.6
2018-Jul-21 23:30N 41°21' W 071°07'4 8.6
2018-Jul-21 23:00N 41°17' W 071°11'4 8.8
2018-Jul-21 22:30N 41°14' W 071°14'4 8.7
2018-Jul-21 22:00N 41°10' W 071°18'135 7.9
2018-Jul-21 04:57N 40°30' W 074°08'6 0.4
2018-Jul-20 12:50N 40°32' W 074°15'0 0.0
2018-Jul-20 12:20N 40°32' W 074°15'0 0.0
2018-Jul-20 11:53N 40°32' W 074°15'0 0.0
2018-Jul-20 06:47N 40°32' W 074°15'0 0.0
2018-Jul-20 04:31N 40°32' W 074°15'0 1.0
2018-Jul-20 04:30N 40°32' W 074°15'0 0.0
2018-Jul-20 04:00N 40°32' W 074°15'2 4.9
2018-Jul-20 03:30N 40°34' W 074°13'4 8.5
2018-Jul-20 03:00N 40°38' W 074°12'5 9.4
2018-Jul-20 02:30N 40°39' W 074°06'4 8.0
2018-Jul-20 02:00N 40°40' W 074°01'0 0.0
2018-Jul-20 01:30N 40°40' W 074°01'0 0.0
2018-Jul-20 00:59N 40°40' W 074°01'0 0.0
2018-Jul-20 00:29N 40°40' W 074°01'0 0.0
2018-Jul-19 23:59N 40°40' W 074°01'0 0.0
2018-Jul-19 23:29N 40°40' W 074°01'0 0.0
2018-Jul-19 22:59N 40°40' W 074°01'0 0.0
2018-Jul-19 22:29N 40°40' W 074°01'0 0.0
2018-Jul-19 21:59N 40°40' W 074°01'0 0.0
2018-Jul-19 21:29N 40°40' W 074°01'0 0.0
2018-Jul-19 20:59N 40°40' W 074°01'0 0.0
2018-Jul-19 20:29N 40°40' W 074°01'0 0.0
2018-Jul-19 19:59N 40°40' W 074°01'0 0.0
2018-Jul-19 19:29N 40°40' W 074°01'0 0.0
2018-Jul-19 18:59N 40°40' W 074°01'0 0.0
2018-Jul-19 18:29N 40°40' W 074°01'0 0.0
2018-Jul-19 17:59N 40°40' W 074°01'0 0.0
2018-Jul-19 17:29N 40°40' W 074°01'0 0.0
2018-Jul-19 16:59N 40°40' W 074°01'0 0.0
2018-Jul-19 16:31N 40°40' W 074°01'0 0.1
2018-Jul-19 16:01N 40°40' W 074°01'3 5.4
2018-Jul-19 15:30N 40°39' W 074°04'3 5.4
2018-Jul-19 15:00N 40°38' W 074°08'0 0.0
2018-Jul-19 14:01N 40°38' W 074°08'510.0
2018-Jul-19 13:30N 40°40' W 074°02'1 1.4
2018-Jul-19 12:59N 40°40' W 074°01'0 0.0
2018-Jul-19 12:29N 40°40' W 074°01'0 0.0
2018-Jul-19 11:59N 40°40' W 074°01'0 0.0
2018-Jul-19 11:29N 40°40' W 074°01'0 0.0
2018-Jul-19 10:59N 40°40' W 074°01'0 0.0
2018-Jul-19 10:29N 40°40' W 074°01'0 0.0
2018-Jul-19 09:59N 40°40' W 074°01'0 0.0
2018-Jul-19 09:29N 40°40' W 074°01'0 0.0
2018-Jul-19 08:59N 40°40' W 074°01'0 0.3
2018-Jul-19 08:29N 40°40' W 074°01'0 0.0
2018-Jul-19 07:59N 40°40' W 074°01'0 0.0
2018-Jul-19 07:29N 40°40' W 074°01'0 0.0
2018-Jul-19 07:01N 40°40' W 074°01'0 0.1
2018-Jul-19 06:31N 40°40' W 074°01'0 0.0
2018-Jul-19 06:01N 40°40' W 074°01'0 0.1
2018-Jul-19 05:30N 40°40' W 074°01'0 0.0
2018-Jul-19 05:00N 40°40' W 074°01'0 0.0
2018-Jul-19 04:30N 40°40' W 074°01'0 0.0
2018-Jul-19 04:00N 40°40' W 074°01'0 0.0
2018-Jul-19 03:30N 40°40' W 074°01'0 0.0
2018-Jul-19 03:00N 40°40' W 074°01'0 0.0
2018-Jul-19 02:30N 40°40' W 074°01'0 0.0
2018-Jul-19 02:00N 40°40' W 074°01'0 0.0
2018-Jul-19 01:30N 40°40' W 074°01'0 0.0
2018-Jul-19 01:00N 40°40' W 074°01'0 0.0
2018-Jul-19 00:30N 40°40' W 074°01'0 0.0
2018-Jul-19 00:00N 40°40' W 074°01'0 0.0
2018-Jul-18 23:30N 40°40' W 074°01'0 0.0
2018-Jul-18 23:00N 40°40' W 074°01'0 0.0
2018-Jul-18 22:30N 40°40' W 074°01'0 0.0
2018-Jul-18 22:00N 40°40' W 074°01'0 0.0
2018-Jul-18 21:30N 40°40' W 074°01'0 0.0
2018-Jul-18 21:00N 40°40' W 074°01'0 0.0
2018-Jul-18 20:30N 40°40' W 074°01'0 0.0
2018-Jul-18 20:00N 40°40' W 074°01'0 0.0
2018-Jul-18 19:30N 40°40' W 074°01'0 0.0
2018-Jul-18 19:00N 40°40' W 074°01'0 0.0
2018-Jul-18 18:30N 40°40' W 074°01'0 0.0
2018-Jul-18 18:00N 40°40' W 074°01'0 0.0
2018-Jul-18 17:30N 40°40' W 074°01'0 0.2
2018-Jul-18 17:00N 40°40' W 074°01'0 0.0
2018-Jul-18 16:30N 40°40' W 074°01'0 0.0
2018-Jul-18 16:00N 40°40' W 074°01'0 0.0
2018-Jul-18 15:30N 40°40' W 074°01'0 0.0
2018-Jul-18 15:00N 40°40' W 074°01'0 0.0
2018-Jul-18 14:30N 40°40' W 074°01'0 0.0
2018-Jul-18 13:30N 40°40' W 074°01'0 0.0
2018-Jul-18 13:00N 40°40' W 074°01'0 0.0
2018-Jul-18 12:30N 40°40' W 074°01'0 0.0
2018-Jul-18 12:00N 40°40' W 074°01'0 0.0
2018-Jul-18 11:30N 40°40' W 074°01'0 0.0
2018-Jul-18 10:30N 40°40' W 074°01'0 0.0
2018-Jul-18 10:00N 40°40' W 074°01'0 0.0
2018-Jul-18 09:30N 40°40' W 074°01'0 0.0
2018-Jul-18 09:00N 40°40' W 074°01'0 0.0
2018-Jul-18 08:30N 40°40' W 074°01'0 0.0
2018-Jul-18 08:00N 40°40' W 074°01'0 0.0
2018-Jul-18 07:30N 40°40' W 074°01'0 0.0
2018-Jul-18 07:00N 40°40' W 074°01'0 0.0
2018-Jul-18 06:30N 40°40' W 074°01'0 0.0
2018-Jul-18 06:00N 40°40' W 074°01'0 0.0
2018-Jul-18 05:30N 40°40' W 074°01'0 0.0
2018-Jul-18 05:00N 40°40' W 074°01'0 0.0
2018-Jul-18 04:30N 40°40' W 074°01'0 0.0
2018-Jul-18 04:00N 40°40' W 074°01'0 0.0
2018-Jul-18 03:30N 40°40' W 074°01'0 0.0
2018-Jul-18 03:00N 40°40' W 074°01'0 0.0
2018-Jul-18 02:30N 40°40' W 074°01'0 0.0
2018-Jul-18 02:00N 40°40' W 074°01'0 0.0
2018-Jul-18 01:30N 40°40' W 074°01'0 0.0
2018-Jul-18 01:00N 40°40' W 074°01'0 0.0
2018-Jul-18 00:30N 40°40' W 074°01'0 0.2
2018-Jul-18 00:00N 40°40' W 074°01'1 2.1
2018-Jul-17 23:30N 40°40' W 074°02'1 1.3
2018-Jul-17 23:00N 40°40' W 074°03'4 8.1
2018-Jul-17 22:30N 40°39' W 074°08'0 0.2
2018-Jul-17 22:00N 40°38' W 074°08'0 0.0
2018-Jul-17 21:30N 40°38' W 074°08'0 0.0
2018-Jul-17 21:00N 40°38' W 074°08'0 0.0
2018-Jul-17 20:30N 40°38' W 074°08'0 0.0
2018-Jul-17 20:00N 40°38' W 074°08'0 0.0
2018-Jul-17 19:30N 40°38' W 074°08'0 0.0
2018-Jul-17 18:59N 40°38' W 074°08'0 0.0
2018-Jul-17 18:30N 40°38' W 074°08'0 0.0
2018-Jul-17 18:00N 40°38' W 074°08'0 0.0
2018-Jul-17 17:30N 40°38' W 074°08'0 0.0
2018-Jul-17 17:00N 40°38' W 074°08'0 0.0
2018-Jul-17 16:30N 40°38' W 074°08'0 0.0
2018-Jul-17 16:00N 40°38' W 074°08'0 0.0
2018-Jul-17 15:30N 40°38' W 074°08'0 0.0
2018-Jul-17 14:57N 40°38' W 074°08'0 0.0
2018-Jul-17 14:30N 40°38' W 074°08'0 0.0
2018-Jul-17 14:00N 40°38' W 074°08'0 0.0
2018-Jul-17 13:30N 40°38' W 074°08'0 0.0
2018-Jul-17 13:00N 40°38' W 074°08'0 0.0
2018-Jul-17 12:30N 40°38' W 074°08'0 0.0
2018-Jul-17 12:00N 40°38' W 074°08'0 0.0
2018-Jul-17 11:30N 40°38' W 074°08'0 0.0
2018-Jul-17 11:00N 40°38' W 074°08'1 2.6
2018-Jul-17 10:29N 40°39' W 074°06'2 4.9
2018-Jul-17 10:00N 40°40' W 074°03'2 3.4
2018-Jul-17 09:30N 40°40' W 074°01'0 0.2
2018-Jul-17 09:00N 40°40' W 074°01'0 0.0
2018-Jul-17 08:30N 40°40' W 074°01'0 0.0
2018-Jul-17 08:00N 40°40' W 074°01'0 0.0
2018-Jul-17 07:30N 40°40' W 074°01'0 0.0
2018-Jul-17 07:00N 40°40' W 074°01'0 0.0
2018-Jul-17 06:30N 40°40' W 074°01'0 0.0
2018-Jul-17 06:00N 40°40' W 074°01'0 0.0
2018-Jul-17 05:30N 40°40' W 074°01'0 0.0
2018-Jul-17 05:00N 40°40' W 074°01'0 0.0
2018-Jul-17 04:30N 40°40' W 074°01'0 0.0
2018-Jul-17 04:00N 40°40' W 074°01'0 0.0
2018-Jul-17 03:30N 40°40' W 074°01'0 0.0
2018-Jul-17 03:00N 40°40' W 074°01'0 0.0
2018-Jul-17 02:30N 40°40' W 074°01'0 0.0
2018-Jul-17 02:00N 40°40' W 074°01'0 0.0
2018-Jul-17 01:30N 40°40' W 074°01'0 0.0
2018-Jul-17 01:00N 40°40' W 074°01'0 0.0
2018-Jul-17 00:30N 40°40' W 074°01'0 0.0
2018-Jul-16 23:30N 40°40' W 074°01'0 0.1
2018-Jul-16 23:00N 40°40' W 074°01'0 0.0
2018-Jul-16 22:30N 40°40' W 074°01'0 0.1
2018-Jul-16 22:00N 40°40' W 074°01'0 0.0
2018-Jul-16 21:30N 40°40' W 074°01'0 0.0
2018-Jul-16 21:00N 40°40' W 074°01'0 0.0
2018-Jul-16 20:30N 40°40' W 074°01'0 0.0
2018-Jul-16 20:00N 40°40' W 074°01'0 0.0
2018-Jul-16 19:30N 40°40' W 074°01'0 0.0
2018-Jul-16 19:00N 40°40' W 074°01'0 0.0
2018-Jul-16 18:30N 40°40' W 074°01'0 0.0
2018-Jul-16 18:00N 40°40' W 074°01'0 0.0
2018-Jul-16 17:30N 40°40' W 074°01'0 0.0
2018-Jul-16 17:00N 40°40' W 074°01'0 0.0
2018-Jul-16 16:30N 40°40' W 074°01'0 0.0
2018-Jul-16 16:00N 40°40' W 074°01'0 0.0
2018-Jul-16 15:30N 40°40' W 074°01'0 0.0
2018-Jul-16 15:00N 40°40' W 074°01'0 0.0
2018-Jul-16 14:30N 40°40' W 074°01'0 0.1
2018-Jul-16 14:00N 40°40' W 074°01'0 0.0
2018-Jul-16 13:30N 40°40' W 074°01'0 0.0
2018-Jul-16 13:00N 40°40' W 074°01'0 0.0
2018-Jul-16 12:30N 40°40' W 074°01'0 0.0
2018-Jul-16 12:00N 40°40' W 074°01'0 0.0
2018-Jul-16 11:30N 40°40' W 074°01'0 0.1
2018-Jul-16 11:00N 40°40' W 074°01'1 2.5
2018-Jul-16 10:31N 40°40' W 074°03'4 8.4
2018-Jul-16 10:00N 40°39' W 074°08'3 5.2
2018-Jul-16 09:30N 40°39' W 074°11'2 4.3
2018-Jul-16 08:57N 40°36' W 074°12'0 0.0
2018-Jul-16 08:29N 40°36' W 074°12'0 0.0
2018-Jul-16 02:26N 40°36' W 074°12'1 0.1
2018-Jul-15 10:28N 40°37' W 074°12'4 8.2
2018-Jul-15 10:00N 40°39' W 074°07'4 7.6
2018-Jul-15 09:30N 40°40' W 074°03'0 0.1
2018-Jul-15 09:00N 40°40' W 074°03'0 0.1
2018-Jul-15 08:30N 40°40' W 074°03'0 0.1
2018-Jul-15 08:00N 40°40' W 074°03'0 0.0
2018-Jul-15 07:30N 40°40' W 074°03'0 0.0
2018-Jul-15 07:00N 40°40' W 074°03'0 0.0
2018-Jul-15 06:30N 40°40' W 074°03'0 0.0
2018-Jul-15 06:00N 40°40' W 074°03'0 0.0
2018-Jul-15 05:30N 40°40' W 074°03'0 0.1
2018-Jul-15 05:00N 40°40' W 074°03'0 0.1
2018-Jul-15 04:30N 40°40' W 074°03'0 0.2
2018-Jul-15 04:00N 40°40' W 074°02'0 0.1
2018-Jul-15 03:30N 40°40' W 074°02'0 0.6
2018-Jul-15 03:00N 40°40' W 074°02'3 6.9
2018-Jul-15 02:30N 40°42' W 073°59'4 7.2
2018-Jul-15 02:00N 40°46' W 073°57'66 8.6
2018-Jul-14 18:20N 41°07' W 072°34'4 9.8
2018-Jul-14 17:58N 41°08' W 072°30'5 9.9
2018-Jul-14 17:30N 41°10' W 072°24'5 9.9
2018-Jul-14 17:00N 41°11' W 072°17'610.4
2018-Jul-14 16:23N 41°13' W 072°09'40 9.8
2018-Jul-14 12:16N 41°30' W 071°21'3 8.9
2018-Jul-14 11:59N 41°32' W 071°20'8 9.3
2018-Jul-14 11:10N 41°40' W 071°19'1 9.6
2018-Jul-14 11:00N 41°41' W 071°19'5 9.0
2018-Jul-14 10:30N 41°45' W 071°22'2 3.7
2018-Jul-14 10:00N 41°47' W 071°22'0 0.0
2018-Jul-14 09:30N 41°47' W 071°22'0 0.0
2018-Jul-14 09:00N 41°47' W 071°22'0 0.0
2018-Jul-14 08:30N 41°47' W 071°22'0 0.0
2018-Jul-14 08:00N 41°47' W 071°22'0 0.0
2018-Jul-14 07:30N 41°47' W 071°22'0 0.0
2018-Jul-14 07:00N 41°47' W 071°22'0 0.0
2018-Jul-14 06:30N 41°47' W 071°22'0 0.0
2018-Jul-14 06:00N 41°47' W 071°22'0 0.0
2018-Jul-14 05:30N 41°47' W 071°22'0 0.0
2018-Jul-14 05:00N 41°47' W 071°22'0 0.0
2018-Jul-14 04:30N 41°47' W 071°22'0 0.0
2018-Jul-14 04:00N 41°47' W 071°22'0 0.0
2018-Jul-14 03:30N 41°47' W 071°22'0 0.0
2018-Jul-14 03:00N 41°47' W 071°22'0 0.0
2018-Jul-14 02:30N 41°47' W 071°22'0 0.0
2018-Jul-14 02:00N 41°47' W 071°22'0 0.0
2018-Jul-14 01:30N 41°47' W 071°22'0 0.0
2018-Jul-14 01:00N 41°47' W 071°22'0 0.0
2018-Jul-14 00:30N 41°47' W 071°22'0 0.0
2018-Jul-14 00:00N 41°47' W 071°22'0 0.0
2018-Jul-13 23:30N 41°47' W 071°22'2 1.6
2018-Jul-13 22:25N 41°48' W 071°24'2 4.2
2018-Jul-13 22:00N 41°47' W 071°22'1 3.0
2018-Jul-13 21:30N 41°45' W 071°23'5 9.4
2018-Jul-13 20:59N 41°41' W 071°19'80 8.2
2018-Jul-13 11:19N 40°45' W 072°34'5 8.3
2018-Jul-13 10:45N 40°44' W 072°40'3 8.3
2018-Jul-13 10:24N 40°43' W 072°44'3 8.5
2018-Jul-13 10:00N 40°41' W 072°48'4 8.6
2018-Jul-13 09:30N 40°40' W 072°53'4 8.7
2018-Jul-13 09:00N 40°38' W 072°59'4 8.7
2018-Jul-13 08:31N 40°37' W 073°04'4 8.9
2018-Jul-13 08:00N 40°35' W 073°09'5 9.0
2018-Jul-13 07:30N 40°33' W 073°15'5 9.2
2018-Jul-13 07:00N 40°32' W 073°20'5 9.3
2018-Jul-13 06:30N 40°31' W 073°26'8 9.6
2018-Jul-13 05:42N 40°29' W 073°36'3 9.5
2018-Jul-13 05:22N 40°28' W 073°40'4 9.6
2018-Jul-13 04:57N 40°28' W 073°45'4 9.8
2018-Jul-13 04:31N 40°28' W 073°51'611.5
2018-Jul-13 04:00N 40°30' W 073°58'510.2
2018-Jul-13 03:30N 40°35' W 074°02'510.0
2018-Jul-13 03:00N 40°39' W 074°05'4 8.0
2018-Jul-13 02:30N 40°39' W 074°10'3 2.6
2018-Jul-13 01:23N 40°36' W 074°12'0 0.1
2018-Jul-13 00:57N 40°36' W 074°12'0 0.0
2018-Jul-13 00:24N 40°36' W 074°12'0 0.0
2018-Jul-12 18:47N 40°36' W 074°12'0 0.0
2018-Jul-12 17:55N 40°36' W 074°12'0 0.2
2018-Jul-12 16:00N 40°37' W 074°12'4 7.9
2018-Jul-12 15:28N 40°39' W 074°07'1 1.4
2018-Jul-12 15:00N 40°39' W 074°07'0 0.0
2018-Jul-12 14:28N 40°39' W 074°07'0 0.0
2018-Jul-12 13:56N 40°39' W 074°07'0 0.0
2018-Jul-12 13:28N 40°39' W 074°07'0 0.0
2018-Jul-12 13:00N 40°39' W 074°07'  

Dump ship's entire track history